Time;durP1;ratioP1;P1;durP2;ratioP2;P2;SDS_P1;SDS_P2;PMS_P1;PMS_P2;Temp;Humidity;BMP_temperature;BMP_pressure;BME280_temperature;BME280_humidity;BME280_pressure;Samples;Min_cycle;Max_cycle;Signal;HPM_P1;HPM_P2
2023/06/22 00:02:18;;;;;;;14.02;9.05;;;24.30;67.30;;;;;;4997940;28;20433;-46
2023/06/22 00:04:44;;;;;;;12.38;9.57;;;24.30;67.70;;;;;;4997802;28;20549;-45
2023/06/22 00:07:10;;;;;;;14.75;9.85;;;24.30;67.10;;;;;;4994025;28;20022;-47
2023/06/22 00:09:36;;;;;;;12.40;9.52;;;24.30;67.10;;;;;;4997032;28;20022;-46
2023/06/22 00:12:02;;;;;;;12.73;8.95;;;24.30;67.20;;;;;;4995490;28;20180;-46
2023/06/22 00:14:28;;;;;;;12.85;9.73;;;24.30;66.90;;;;;;5002413;28;20018;-44
2023/06/22 00:16:57;;;;;;;12.00;9.50;;;24.30;67.10;;;;;;4996409;28;20101;-45
2023/06/22 00:19:23;;;;;;;13.43;9.30;;;24.30;67.20;;;;;;4994641;28;20054;-45
2023/06/22 00:21:52;;;;;;;10.20;8.35;;;24.30;67.10;;;;;;4986433;28;20522;-45
2023/06/22 00:24:19;;;;;;;11.18;8.82;;;24.30;67.10;;;;;;5000951;28;20026;-44
2023/06/22 00:26:45;;;;;;;11.60;9.00;;;24.20;67.00;;;;;;5007824;28;20025;-44
2023/06/22 00:29:11;;;;;;;10.98;8.75;;;24.30;67.10;;;;;;5014335;28;20028;-45
2023/06/22 00:31:37;;;;;;;10.48;8.73;;;24.30;66.70;;;;;;5010247;28;20479;-48
2023/06/22 00:34:03;;;;;;;10.27;8.13;;;24.20;67.00;;;;;;5007827;28;20098;-45
2023/06/22 00:36:29;;;;;;;10.52;7.68;;;24.20;66.40;;;;;;4998664;28;20050;-44
2023/06/22 00:38:57;;;;;;;13.85;8.18;;;24.20;66.90;;;;;;5000251;28;20077;-44
2023/06/22 00:41:23;;;;;;;13.65;8.48;;;24.20;66.90;;;;;;4990321;28;20045;-45
2023/06/22 00:43:49;;;;;;;11.77;9.15;;;24.20;66.70;;;;;;5001508;28;20035;-44
2023/06/22 00:46:15;;;;;;;11.48;8.77;;;24.20;66.60;;;;;;5013978;28;20027;-45
2023/06/22 00:48:43;;;;;;;11.40;9.02;;;24.20;67.00;;;;;;4999095;28;20394;-45
2023/06/22 00:51:10;;;;;;;11.32;8.10;;;24.20;67.10;;;;;;5002943;28;20027;-45
2023/06/22 00:53:37;;;;;;;11.50;8.68;;;24.30;67.20;;;;;;5004873;28;20022;-45
2023/06/22 00:56:05;;;;;;;15.77;8.43;;;24.20;67.10;;;;;;5006896;28;20021;-44
2023/06/22 00:58:31;;;;;;;11.25;8.00;;;24.20;67.10;;;;;;5005040;28;20026;-50
2023/06/22 01:00:57;;;;;;;10.32;7.93;;;24.30;66.50;;;;;;5011983;28;20445;-51
2023/06/22 01:03:27;;;;;;;12.60;8.10;;;24.20;66.70;;;;;;5010516;28;20029;-50
2023/06/22 01:05:58;;;;;;;11.70;8.25;;;24.20;66.60;;;;;;4989627;28;20022;-49
2023/06/22 01:08:37;;;;;;;11.82;9.07;;;24.20;66.90;;;;;;5004058;28;20092;-50
2023/06/22 01:11:12;;;;;;;11.98;8.70;;;24.20;67.00;;;;;;4992023;28;20030;-48
2023/06/22 01:13:52;;;;;;;11.48;8.20;;;24.20;67.00;;;;;;5013545;28;20052;-51
2023/06/22 01:16:26;;;;;;;10.13;8.27;;;24.20;67.10;;;;;;4996491;28;20446;-49
2023/06/22 01:18:55;;;;;;;13.43;7.95;;;24.20;67.10;;;;;;4996965;28;20486;-50
2023/06/22 01:21:23;;;;;;;12.23;7.63;;;24.20;67.00;;;;;;4998351;28;20103;-48
2023/06/22 01:24:15;;;;;;;12.68;8.60;;;24.20;66.90;;;;;;4984699;28;20029;-51
2023/06/22 01:27:02;;;;;;;12.68;8.48;;;24.20;67.20;;;;;;4996233;28;20112;-48
2023/06/22 01:29:30;;;;;;;11.85;7.68;;;24.20;66.90;;;;;;4994979;28;20022;-50
2023/06/22 01:31:57;;;;;;;10.10;7.95;;;24.20;66.60;;;;;;5010071;28;20176;-49
2023/06/22 01:34:24;;;;;;;11.05;8.02;;;24.20;67.00;;;;;;4989156;28;20022;-47
2023/06/22 01:36:51;;;;;;;13.70;8.18;;;24.20;66.70;;;;;;4985976;28;20033;-46
2023/06/22 01:39:18;;;;;;;10.70;8.48;;;24.20;67.10;;;;;;4996912;28;20109;-46
2023/06/22 01:41:44;;;;;;;13.02;8.32;;;24.20;66.90;;;;;;4985720;28;20030;-44
2023/06/22 01:44:11;;;;;;;11.15;8.27;;;24.20;67.00;;;;;;4986894;28;20105;-44
2023/06/22 01:46:38;;;;;;;10.77;8.23;;;24.20;67.10;;;;;;4991339;28;20061;-51
2023/06/22 01:49:04;;;;;;;11.15;7.75;;;24.20;67.20;;;;;;5004099;28;20041;-44
2023/06/22 01:51:30;;;;;;;12.75;8.50;;;24.20;66.90;;;;;;4985636;28;20509;-51
2023/06/22 01:53:59;;;;;;;10.77;7.35;;;24.20;67.80;;;;;;4994713;28;20387;-49
2023/06/22 01:56:26;;;;;;;10.82;8.02;;;24.20;66.90;;;;;;4997924;28;20110;-47
2023/06/22 01:59:08;;;;;;;10.43;8.18;;;24.20;67.00;;;;;;5010649;28;20029;-49
2023/06/22 02:01:47;;;;;;;10.38;8.15;;;24.20;66.70;;;;;;5009587;28;20492;-49
2023/06/22 02:04:40;;;;;;;12.68;8.00;;;24.20;67.20;;;;;;5007285;28;20068;-47
2023/06/22 02:07:17;;;;;;;10.30;8.15;;;24.20;67.40;;;;;;4906193;29;20040;-50
2023/06/22 02:09:46;;;;;;;12.95;7.80;;;24.20;67.20;;;;;;4918579;29;20083;-50
2023/06/22 02:12:16;;;;;;;13.60;8.60;;;24.20;67.30;;;;;;4920352;29;20467;-48
2023/06/22 02:14:43;;;;;;;13.30;8.10;;;24.20;67.30;;;;;;4917800;29;20044;-46
2023/06/22 02:17:10;;;;;;;17.27;8.68;;;24.20;67.50;;;;;;4922336;29;20067;-47
2023/06/22 02:19:41;;;;;;;11.40;8.75;;;24.20;67.60;;;;;;4917907;29;20475;-46
2023/06/22 02:22:06;;;;;;;12.90;7.78;;;24.20;67.50;;;;;;4922046;29;20043;-50
2023/06/22 02:24:33;;;;;;;10.35;8.57;;;24.20;67.50;;;;;;4921097;29;20141;-48
2023/06/22 02:27:00;;;;;;;10.50;8.55;;;24.20;67.60;;;;;;4917815;29;20039;-48
2023/06/22 02:29:27;;;;;;;9.70;7.97;;;24.20;67.60;;;;;;4916263;29;20055;-48
2023/06/22 02:31:53;;;;;;;12.45;8.18;;;24.20;67.60;;;;;;4914218;29;20561;-46
2023/06/22 02:34:19;;;;;;;12.05;8.07;;;24.20;67.70;;;;;;4913425;29;20511;-47
2023/06/22 02:36:51;;;;;;;10.75;8.48;;;24.20;67.80;;;;;;4921339;29;20115;-49
2023/06/22 02:39:22;;;;;;;11.93;8.60;;;24.20;67.90;;;;;;4921990;29;20107;-50
2023/06/22 02:41:55;;;;;;;11.10;8.68;;;24.20;67.80;;;;;;4919872;29;20582;-46
2023/06/22 02:44:22;;;;;;;13.52;9.02;;;24.20;67.90;;;;;;4963197;28;20113;-49
2023/06/22 02:46:48;;;;;;;10.80;7.97;;;24.20;67.90;;;;;;4996989;28;20031;-52
2023/06/22 02:49:15;;;;;;;14.80;9.60;;;24.20;67.70;;;;;;5009398;28;20093;-51
2023/06/22 02:51:45;;;;;;;12.60;9.18;;;24.20;67.70;;;;;;4984053;28;20164;-50
2023/06/22 02:54:12;;;;;;;11.48;8.73;;;24.20;67.80;;;;;;4996516;28;20094;-48
2023/06/22 02:56:40;;;;;;;16.02;8.95;;;24.20;67.80;;;;;;4991555;28;20022;-49
2023/06/22 02:59:06;;;;;;;10.73;8.63;;;24.20;67.90;;;;;;5006817;28;20398;-49
2023/06/22 03:01:40;;;;;;;15.73;9.60;;;24.20;67.50;;;;;;5011547;28;21547;-51
2023/06/22 03:04:13;;;;;;;11.75;8.60;;;24.20;67.80;;;;;;5007945;28;20034;-45
2023/06/22 03:06:40;;;;;;;13.63;9.13;;;24.20;67.80;;;;;;5014350;28;20036;-51
2023/06/22 03:09:07;;;;;;;15.40;9.27;;;24.20;67.90;;;;;;5004628;28;20106;-44
2023/06/22 03:11:35;;;;;;;12.93;9.43;;;24.30;67.70;;;;;;4995287;28;20034;-49
2023/06/22 03:14:01;;;;;;;14.18;9.15;;;24.20;67.70;;;;;;4976331;28;20378;-48
2023/06/22 03:16:29;;;;;;;12.85;8.80;;;24.20;67.90;;;;;;4998658;28;20027;-52
2023/06/22 03:18:55;;;;;;;12.88;9.27;;;24.20;67.90;;;;;;5009257;28;20026;-47
2023/06/22 03:21:29;;;;;;;12.70;9.48;;;24.20;67.90;;;;;;4995979;28;20027;-48
2023/06/22 03:23:55;;;;;;;16.15;9.70;;;24.20;67.90;;;;;;4995508;28;20023;-49
2023/06/22 03:26:21;;;;;;;12.80;9.40;;;24.20;67.90;;;;;;4997745;28;20032;-51
2023/06/22 03:28:47;;;;;;;11.18;9.05;;;24.20;67.90;;;;;;4993597;28;20392;-48
2023/06/22 03:31:13;;;;;;;14.10;9.23;;;24.20;68.10;;;;;;4993365;28;20022;-51
2023/06/22 03:33:40;;;;;;;12.70;9.13;;;24.20;68.50;;;;;;4982130;28;20449;-50
2023/06/22 03:36:06;;;;;;;12.30;9.23;;;24.20;68.00;;;;;;4991458;28;20015;-45
2023/06/22 03:38:32;;;;;;;12.27;9.05;;;24.20;67.90;;;;;;4993445;28;20410;-47
2023/06/22 03:40:58;;;;;;;11.98;8.80;;;24.20;67.90;;;;;;4981413;28;20027;-44
2023/06/22 03:43:25;;;;;;;13.18;8.43;;;24.20;67.80;;;;;;5001078;28;20026;-47
2023/06/22 03:45:51;;;;;;;11.93;8.57;;;24.20;67.90;;;;;;4992788;28;20033;-49
2023/06/22 03:48:17;;;;;;;12.35;7.93;;;24.20;67.80;;;;;;5006213;28;20195;-45
2023/06/22 03:50:43;;;;;;;10.40;8.20;;;24.20;67.50;;;;;;5003703;28;20066;-44
2023/06/22 03:53:10;;;;;;;15.55;8.70;;;24.20;67.60;;;;;;5004196;28;20482;-50
2023/06/22 03:55:36;;;;;;;9.88;7.32;;;24.20;67.30;;;;;;4995180;28;20402;-47
2023/06/22 03:58:05;;;;;;;10.82;7.85;;;24.20;67.60;;;;;;4995857;28;20019;-47
2023/06/22 04:00:32;;;;;;;11.93;7.40;;;24.20;67.60;;;;;;5002744;28;20452;-45
2023/06/22 04:02:58;;;;;;;10.23;7.88;;;24.20;67.40;;;;;;4997568;28;20045;-50
2023/06/22 04:05:24;;;;;;;12.13;8.05;;;24.10;67.40;;;;;;4992427;28;20474;-48
2023/06/22 04:07:50;;;;;;;11.38;7.40;;;24.10;67.30;;;;;;4986638;28;20030;-45
2023/06/22 04:10:16;;;;;;;12.30;7.80;;;24.20;67.40;;;;;;4991930;28;20033;-45
2023/06/22 04:12:41;;;;;;;11.48;7.95;;;24.10;67.30;;;;;;5001883;28;20030;-48
2023/06/22 04:15:08;;;;;;;12.68;7.65;;;24.10;67.20;;;;;;5002053;28;20486;-45
2023/06/22 04:17:33;;;;;;;14.02;7.80;;;24.10;67.10;;;;;;5002413;28;20072;-45
2023/06/22 04:19:59;;;;;;;13.32;7.80;;;24.10;67.20;;;;;;5000473;28;20367;-44
2023/06/22 04:22:25;;;;;;;10.50;7.72;;;24.10;66.80;;;;;;4993974;28;20042;-48
2023/06/22 04:24:51;;;;;;;12.05;7.95;;;24.10;67.20;;;;;;4984492;28;20393;-45
2023/06/22 04:27:18;;;;;;;12.13;7.78;;;24.10;67.10;;;;;;4996078;28;20034;-46
2023/06/22 04:29:48;;;;;;;11.70;7.20;;;24.10;67.10;;;;;;4994476;28;20121;-47
2023/06/22 04:32:17;;;;;;;11.50;6.80;;;24.10;66.90;;;;;;4989756;28;20030;-46
2023/06/22 04:34:43;;;;;;;11.75;6.72;;;24.10;66.80;;;;;;4995956;28;20032;-47
2023/06/22 04:37:09;;;;;;;10.55;6.80;;;24.10;66.20;;;;;;4993136;28;20061;-52
2023/06/22 04:39:35;;;;;;;11.80;6.82;;;24.10;66.50;;;;;;5023704;23;20041;-51
2023/06/22 04:42:01;;;;;;;12.90;6.45;;;24.10;66.30;;;;;;5006361;28;20497;-49
2023/06/22 04:44:27;;;;;;;12.95;7.22;;;24.20;66.40;;;;;;5008917;28;20025;-51
2023/06/22 04:47:08;;;;;;;10.15;6.35;;;24.10;66.60;;;;;;5016128;28;20021;-51
2023/06/22 04:49:40;;;;;;;9.75;6.68;;;24.10;66.50;;;;;;5010937;28;20030;-49
2023/06/22 04:52:07;;;;;;;10.15;6.68;;;24.10;66.70;;;;;;5004344;28;20531;-49
2023/06/22 04:54:34;;;;;;;11.20;7.10;;;24.20;65.90;;;;;;5001183;28;20391;-49
2023/06/22 04:57:01;;;;;;;11.07;6.18;;;24.10;65.80;;;;;;5001083;28;20394;-50
2023/06/22 04:59:29;;;;;;;9.95;6.03;;;24.10;66.10;;;;;;5002092;28;20154;-49
2023/06/22 05:02:00;;;;;;;9.88;5.65;;;24.10;66.10;;;;;;4999738;28;20357;-50
2023/06/22 05:04:31;;;;;;;9.85;6.20;;;24.10;65.90;;;;;;4977388;28;20031;-52
2023/06/22 05:06:57;;;;;;;9.15;6.10;;;24.10;65.80;;;;;;4996375;28;20026;-48
2023/06/22 05:09:24;;;;;;;12.82;6.38;;;24.10;65.90;;;;;;4994436;28;20512;-52
2023/06/22 05:11:51;;;;;;;8.52;5.28;;;24.10;65.80;;;;;;5006461;28;20049;-51
2023/06/22 05:14:17;;;;;;;10.55;5.72;;;24.10;65.20;;;;;;4987840;28;20312;-52
2023/06/22 05:16:44;;;;;;;10.05;5.72;;;24.10;65.30;;;;;;5008173;28;20026;-51
2023/06/22 05:19:10;;;;;;;11.93;5.80;;;24.10;65.50;;;;;;5012654;28;20030;-50
2023/06/22 05:21:36;;;;;;;15.40;6.97;;;24.10;65.00;;;;;;4994075;28;20026;-49
2023/06/22 05:24:02;;;;;;;8.10;5.75;;;24.10;65.50;;;;;;5002997;28;20022;-51
2023/06/22 05:26:33;;;;;;;10.73;5.47;;;24.10;65.60;;;;;;4997117;28;20037;-49
2023/06/22 05:29:03;;;;;;;10.88;5.70;;;24.10;65.00;;;;;;5002370;28;20394;-47
2023/06/22 05:31:29;;;;;;;8.90;5.13;;;24.10;65.20;;;;;;5001883;28;20414;-46
2023/06/22 05:33:55;;;;;;;6.75;4.78;;;24.10;64.70;;;;;;5007950;28;20030;-46
2023/06/22 05:36:25;;;;;;;9.85;5.43;;;24.10;64.80;;;;;;5001664;28;20072;-48
2023/06/22 05:38:56;;;;;;;9.50;5.50;;;24.20;64.80;;;;;;5000774;28;20030;-49
2023/06/22 05:41:22;;;;;;;9.57;5.03;;;24.10;65.60;;;;;;4998611;28;20033;-55
2023/06/22 05:43:47;;;;;;;12.63;5.78;;;24.10;65.90;;;;;;4995372;28;20521;-53
2023/06/22 05:46:14;;;;;;;10.50;5.40;;;24.10;65.20;;;;;;5005874;28;20029;-54
2023/06/22 05:48:39;;;;;;;10.18;4.93;;;24.10;64.90;;;;;;5008854;28;20026;-55
2023/06/22 05:51:05;;;;;;;9.35;5.10;;;24.10;64.90;;;;;;5008118;28;20500;-54
2023/06/22 05:53:31;;;;;;;9.43;5.68;;;24.10;65.00;;;;;;5007929;28;20105;-50
2023/06/22 05:55:57;;;;;;;8.88;4.95;;;24.10;64.80;;;;;;5000350;28;20029;-52
2023/06/22 05:58:22;;;;;;;10.35;5.45;;;24.10;64.80;;;;;;5008582;28;20030;-52
2023/06/22 06:00:48;;;;;;;10.20;5.13;;;24.10;65.00;;;;;;5000095;28;20022;-49
2023/06/22 06:03:16;;;;;;;11.38;4.90;;;24.10;64.90;;;;;;5003742;28;20070;-49
2023/06/22 06:05:43;;;;;;;10.07;5.30;;;24.10;65.40;;;;;;5008857;28;20053;-48
2023/06/22 06:08:10;;;;;;;12.82;5.07;;;24.20;65.40;;;;;;5003981;28;20494;-49
2023/06/22 06:10:36;;;;;;;10.95;5.72;;;24.20;64.80;;;;;;5000083;28;20022;-51
2023/06/22 06:13:04;;;;;;;10.00;5.45;;;24.20;64.50;;;;;;5009852;28;20057;-47
2023/06/22 06:15:31;;;;;;;9.43;5.25;;;24.20;64.70;;;;;;5011041;28;20382;-48
2023/06/22 06:17:56;;;;;;;7.55;5.35;;;24.20;65.10;;;;;;4989739;28;20045;-53
2023/06/22 06:20:24;;;;;;;13.27;5.70;;;24.20;64.90;;;;;;5005445;28;20029;-49
2023/06/22 06:22:50;;;;;;;15.70;6.30;;;24.20;65.80;;;;;;5003589;28;20034;-48
2023/06/22 06:25:16;;;;;;;18.60;6.18;;;24.30;65.50;;;;;;4994968;28;20022;-46
2023/06/22 06:27:43;;;;;;;22.75;6.57;;;24.30;65.00;;;;;;5001898;28;20084;-48
2023/06/22 06:30:11;;;;;;;18.70;6.93;;;24.40;65.10;;;;;;5010464;28;20040;-46
2023/06/22 06:32:38;;;;;;;20.92;6.47;;;24.40;65.10;;;;;;5009717;28;20030;-49
2023/06/22 06:35:07;;;;;;;23.83;7.10;;;24.40;65.00;;;;;;5000271;28;20101;-46
2023/06/22 06:37:37;;;;;;;;;;;24.50;65.90;;;;;;4996807;28;20030;-44
2023/06/22 06:40:10;;;;;;;16.90;5.68;;;24.40;65.10;;;;;;4997861;28;20603;-44
2023/06/22 06:42:41;;;;;;;16.88;5.90;;;24.40;65.40;;;;;;5005043;28;20026;-46
2023/06/22 06:45:08;;;;;;;17.92;5.80;;;24.40;65.40;;;;;;5000969;28;20049;-46
2023/06/22 06:47:34;;;;;;;13.65;5.20;;;24.40;65.30;;;;;;4992711;28;20034;-44
2023/06/22 06:50:00;;;;;;;12.35;5.53;;;24.40;65.40;;;;;;4996055;28;20029;-44
2023/06/22 06:52:26;;;;;;;20.13;5.75;;;24.40;65.50;;;;;;5000599;28;20117;-44
2023/06/22 06:54:52;;;;;;;16.23;6.32;;;24.40;65.80;;;;;;4981423;28;20393;-49
2023/06/22 06:57:20;;;;;;;13.52;4.95;;;24.40;65.50;;;;;;4992331;28;20018;-44
2023/06/22 06:59:47;;;;;;;;;;;24.30;65.70;;;;;;4985079;28;20085;-45
2023/06/22 07:02:14;;;;;;;11.27;5.35;;;24.40;65.60;;;;;;5006082;28;19913;-44
2023/06/22 07:04:40;;;;;;;9.68;4.95;;;24.40;65.70;;;;;;5006326;28;20201;-46
2023/06/22 07:07:06;;;;;;;12.77;5.95;;;24.40;65.60;;;;;;5000916;28;20543;-44
2023/06/22 07:09:31;;;;;;;20.35;5.82;;;24.40;65.60;;;;;;5008966;28;20081;-44
2023/06/22 07:11:57;;;;;;;10.68;4.82;;;24.40;65.60;;;;;;5003760;28;20501;-45
2023/06/22 07:14:23;;;;;;;17.77;5.55;;;24.40;65.70;;;;;;4991706;28;20478;-46
2023/06/22 07:16:49;;;;;;;16.02;5.03;;;24.40;65.90;;;;;;5001865;28;20294;-44
2023/06/22 07:19:23;;;;;;;14.00;5.95;;;24.40;65.80;;;;;;5005949;28;20109;-45
2023/06/22 07:21:49;;;;;;;17.60;4.85;;;24.40;65.80;;;;;;5009953;28;20129;-43
2023/06/22 07:24:15;;;;;;;11.38;5.10;;;24.40;65.60;;;;;;5003712;28;20113;-43
2023/06/22 07:26:45;;;;;;;20.50;5.15;;;24.50;66.10;;;;;;5007311;28;20028;-44
2023/06/22 07:29:11;;;;;;;15.60;5.25;;;24.50;65.70;;;;;;4999994;28;20035;-43
2023/06/22 07:31:39;;;;;;;13.77;5.10;;;24.40;65.30;;;;;;5008738;28;20112;-44
2023/06/22 07:34:05;;;;;;;10.32;4.97;;;24.40;65.40;;;;;;5011794;28;20076;-44
2023/06/22 07:36:31;;;;;;;10.15;4.80;;;24.40;65.40;;;;;;5012298;28;20022;-44
2023/06/22 07:38:57;;;;;;;15.25;4.97;;;24.40;65.40;;;;;;5012022;28;20062;-44
2023/06/22 07:41:23;;;;;;;9.38;4.38;;;24.40;65.40;;;;;;5012896;28;20515;-44
2023/06/22 07:43:49;;;;;;;12.73;5.63;;;24.40;65.50;;;;;;4995873;28;20125;-44
2023/06/22 07:46:15;;;;;;;12.15;4.90;;;24.40;65.60;;;;;;5012762;28;20489;-44
2023/06/22 07:48:43;;;;;;;13.38;4.90;;;24.40;65.60;;;;;;5014996;28;20049;-47
2023/06/22 07:51:09;;;;;;;8.07;4.75;;;24.30;65.60;;;;;;5015044;28;20516;-50
2023/06/22 07:53:36;;;;;;;7.53;4.32;;;24.40;65.60;;;;;;5011683;28;20026;-45
2023/06/22 07:56:06;;;;;;;10.88;4.88;;;24.40;65.70;;;;;;5012082;28;20065;-44
2023/06/22 07:58:32;;;;;;;11.70;4.60;;;24.40;65.70;;;;;;5011763;28;20022;-44
2023/06/22 08:00:59;;;;;;;11.20;4.78;;;24.40;65.60;;;;;;5012341;28;20040;-45
2023/06/22 08:03:24;;;;;;;11.40;4.65;;;24.40;65.70;;;;;;5012179;28;20113;-44
2023/06/22 08:05:50;;;;;;;13.00;5.05;;;24.40;65.60;;;;;;5011742;28;20058;-44
2023/06/22 08:08:16;;;;;;;9.80;4.25;;;24.40;65.50;;;;;;5011536;28;20030;-44
2023/06/22 08:10:42;;;;;;;10.93;4.53;;;24.30;65.60;;;;;;5011915;28;20037;-44
2023/06/22 08:13:10;;;;;;;9.05;4.47;;;24.30;65.60;;;;;;5011667;28;20033;-44
2023/06/22 08:15:36;;;;;;;9.90;4.82;;;24.30;65.50;;;;;;5011650;28;20022;-44
2023/06/22 08:18:01;;;;;;;10.80;4.65;;;24.30;65.50;;;;;;5011431;28;20168;-45
2023/06/22 08:20:27;;;;;;;11.45;4.15;;;24.30;65.50;;;;;;5011355;28;20033;-44
2023/06/22 08:22:55;;;;;;;8.95;4.65;;;24.40;65.60;;;;;;5015175;28;20065;-44
2023/06/22 08:25:21;;;;;;;7.90;4.05;;;24.40;65.50;;;;;;5015096;28;20057;-49
2023/06/22 08:27:50;;;;;;;7.22;4.22;;;24.30;65.50;;;;;;5014761;28;20033;-44
2023/06/22 08:30:18;;;;;;;7.47;4.22;;;24.40;65.60;;;;;;5015157;28;20029;-47
2023/06/22 08:32:44;;;;;;;6.70;4.60;;;24.40;65.20;;;;;;5015016;28;20125;-45
2023/06/22 08:35:10;;;;;;;8.05;4.20;;;24.30;65.40;;;;;;5014949;28;20033;-44
2023/06/22 08:37:38;;;;;;;8.43;4.35;;;24.40;65.40;;;;;;5014766;28;20081;-44
2023/06/22 08:40:08;;;;;;;7.60;3.85;;;24.40;65.40;;;;;;5014702;28;20543;-44
2023/06/22 08:42:35;;;;;;;6.18;3.70;;;24.40;65.40;;;;;;5014801;28;20026;-44
2023/06/22 08:45:00;;;;;;;7.80;4.00;;;24.40;65.40;;;;;;5014569;28;20105;-44
2023/06/22 08:47:29;;;;;;;6.45;4.20;;;24.40;65.40;;;;;;5014702;28;20109;-47
2023/06/22 08:49:56;;;;;;;11.57;4.25;;;24.40;65.30;;;;;;5014771;28;20433;-44
2023/06/22 08:52:23;;;;;;;11.23;4.05;;;24.40;65.30;;;;;;5014750;28;20451;-44
2023/06/22 08:54:49;;;;;;;8.35;4.35;;;24.40;65.30;;;;;;5014691;28;20413;-44
2023/06/22 08:57:15;;;;;;;6.40;3.72;;;24.40;65.40;;;;;;5014521;28;20022;-45
2023/06/22 08:59:42;;;;;;;6.43;4.10;;;24.40;65.30;;;;;;5014620;28;20034;-44
2023/06/22 09:02:08;;;;;;;7.25;4.03;;;24.40;65.40;;;;;;5014409;28;20087;-44
2023/06/22 09:04:34;;;;;;;7.15;3.85;;;24.40;65.30;;;;;;5014295;28;20026;-44
2023/06/22 09:07:01;;;;;;;6.03;3.70;;;24.40;65.40;;;;;;5014368;28;20409;-44
2023/06/22 09:09:27;;;;;;;7.40;4.15;;;24.40;65.40;;;;;;5014234;28;20095;-44
2023/06/22 09:11:53;;;;;;;6.85;4.30;;;24.40;65.10;;;;;;5014339;28;20030;-45
2023/06/22 09:14:18;;;;;;;8.07;4.32;;;24.40;65.30;;;;;;5014189;28;20030;-44
2023/06/22 09:16:44;;;;;;;7.63;3.90;;;24.40;65.30;;;;;;5014197;28;20095;-44
2023/06/22 09:19:10;;;;;;;6.53;3.80;;;24.40;65.40;;;;;;5014165;28;20104;-44
2023/06/22 09:21:36;;;;;;;6.80;3.85;;;24.40;65.40;;;;;;5014327;28;20075;-44
2023/06/22 09:24:02;;;;;;;5.55;3.83;;;24.40;65.30;;;;;;5014180;28;20362;-44
2023/06/22 09:26:28;;;;;;;7.40;4.03;;;24.40;65.40;;;;;;5013891;28;20083;-46
2023/06/22 09:28:54;;;;;;;6.40;3.85;;;24.40;65.40;;;;;;5013872;28;20492;-45
2023/06/22 09:31:25;;;;;;;5.97;4.00;;;24.40;65.40;;;;;;5014033;28;20037;-44
2023/06/22 09:33:54;;;;;;;7.00;4.20;;;24.40;65.40;;;;;;5013146;28;20022;-44
2023/06/22 09:36:23;;;;;;;5.90;3.65;;;24.40;65.30;;;;;;5013891;28;20080;-45
2023/06/22 09:38:55;;;;;;;7.95;4.20;;;24.40;65.40;;;;;;5013532;28;20568;-44
2023/06/22 09:41:21;;;;;;;6.18;3.60;;;24.40;65.40;;;;;;5013885;28;20028;-44
2023/06/22 09:43:48;;;;;;;8.48;4.00;;;24.40;65.30;;;;;;5013884;28;20101;-46
2023/06/22 09:46:15;;;;;;;7.68;3.35;;;24.40;65.20;;;;;;5013840;28;20036;-44
2023/06/22 09:48:41;;;;;;;5.65;3.50;;;24.40;65.30;;;;;;5013626;28;20105;-44
2023/06/22 09:51:07;;;;;;;5.60;3.58;;;24.40;65.00;;;;;;5014202;28;20029;-50
2023/06/22 09:53:34;;;;;;;5.82;3.63;;;24.40;65.20;;;;;;5014365;28;20494;-49
2023/06/22 09:56:01;;;;;;;5.45;3.80;;;24.40;65.20;;;;;;5013915;28;20025;-45
2023/06/22 09:58:27;;;;;;;7.75;3.40;;;24.40;65.00;;;;;;5013906;28;20034;-45
2023/06/22 10:00:54;;;;;;;6.28;3.65;;;24.40;65.00;;;;;;5013928;28;20105;-49
2023/06/22 10:03:20;;;;;;;8.32;3.60;;;24.40;65.10;;;;;;5013829;28;20033;-44
2023/06/22 10:05:46;;;;;;;5.53;3.30;;;24.40;65.00;;;;;;5013296;28;20049;-44
2023/06/22 10:08:12;;;;;;;5.75;3.63;;;24.40;65.20;;;;;;5013272;28;20482;-45
2023/06/22 10:10:38;;;;;;;5.25;3.28;;;24.40;65.00;;;;;;5013450;28;20026;-46
2023/06/22 10:13:13;;;;;;;6.53;3.78;;;24.40;65.00;;;;;;5013136;28;20026;-44
2023/06/22 10:15:39;;;;;;;5.25;3.33;;;24.40;65.20;;;;;;5013459;28;20105;-44
2023/06/22 10:18:05;;;;;;;5.82;3.60;;;24.50;65.10;;;;;;5013090;28;20105;-44
2023/06/22 10:20:53;;;;;;;4.15;3.15;;;24.50;65.10;;;;;;5013154;28;20512;-44
2023/06/22 10:23:37;;;;;;;5.90;3.30;;;24.40;65.10;;;;;;5013084;28;20044;-44
2023/06/22 10:26:03;;;;;;;5.10;3.45;;;24.40;65.20;;;;;;5012850;28;20029;-44
2023/06/22 10:28:29;;;;;;;5.13;3.60;;;24.50;65.10;;;;;;5012524;28;20030;-44
2023/06/22 10:30:55;;;;;;;5.07;3.42;;;24.40;65.10;;;;;;5012956;28;20026;-44
2023/06/22 10:33:21;;;;;;;6.00;3.55;;;24.40;65.20;;;;;;4995107;28;20061;-44
2023/06/22 10:35:46;;;;;;;5.75;3.65;;;24.40;64.90;;;;;;5012765;28;20033;-44
2023/06/22 10:38:12;;;;;;;5.25;3.25;;;24.40;65.00;;;;;;5012413;28;20040;-45
2023/06/22 10:40:39;;;;;;;4.28;3.25;;;24.40;65.10;;;;;;5042976;23;20094;-43
2023/06/22 10:43:05;;;;;;;4.25;3.20;;;24.50;65.20;;;;;;5024524;28;20029;-43
2023/06/22 10:45:31;;;;;;;6.45;3.80;;;24.50;65.20;;;;;;5032085;28;20033;-43
2023/06/22 10:47:56;;;;;;;6.28;3.50;;;24.40;65.20;;;;;;5031981;28;20039;-43
2023/06/22 10:50:24;;;;;;;5.97;3.38;;;24.40;65.20;;;;;;5032053;28;20029;-43
2023/06/22 10:52:49;;;;;;;7.80;4.22;;;24.50;65.10;;;;;;5032150;28;20034;-49
2023/06/22 10:55:15;;;;;;;5.88;3.58;;;24.50;65.20;;;;;;5032189;28;20558;-51
2023/06/22 10:57:46;;;;;;;4.97;3.38;;;24.50;65.20;;;;;;5031827;28;20144;-43
2023/06/22 11:00:13;;;;;;;5.28;3.35;;;24.40;65.20;;;;;;5030729;28;20044;-46
2023/06/22 11:02:39;;;;;;;5.60;3.40;;;24.40;65.30;;;;;;5031978;28;20033;-42
2023/06/22 11:05:06;;;;;;;6.28;3.38;;;24.40;65.00;;;;;;5031851;28;20458;-48
2023/06/22 11:07:32;;;;;;;6.88;3.53;;;24.40;65.10;;;;;;5031695;28;20095;-50
2023/06/22 11:09:58;;;;;;;6.25;3.30;;;24.40;65.20;;;;;;5031682;28;20054;-49
2023/06/22 11:12:24;;;;;;;4.28;3.28;;;24.50;65.30;;;;;;5031765;28;20087;-49
2023/06/22 11:14:52;;;;;;;4.53;3.05;;;24.40;65.20;;;;;;5031810;28;20029;-51
2023/06/22 11:17:18;;;;;;;5.10;3.33;;;24.40;65.10;;;;;;5031740;28;20025;-50
2023/06/22 11:19:45;;;;;;;5.55;3.38;;;24.40;65.20;;;;;;5031644;28;20056;-46
2023/06/22 11:22:10;;;;;;;5.47;3.40;;;24.40;65.10;;;;;;5031794;28;20029;-45
2023/06/22 11:24:36;;;;;;;5.57;3.42;;;24.40;64.90;;;;;;5031448;28;20040;-50
2023/06/22 11:27:03;;;;;;;8.02;3.20;;;24.40;65.20;;;;;;5031645;28;20107;-49
2023/06/22 11:29:30;;;;;;;4.53;3.35;;;24.50;64.80;;;;;;5031409;28;20029;-49
2023/06/22 11:31:56;;;;;;;6.28;3.38;;;24.50;65.10;;;;;;5031441;28;20075;-49
2023/06/22 11:34:22;;;;;;;4.88;3.22;;;24.50;65.10;;;;;;5031424;28;20034;-43
2023/06/22 11:36:48;;;;;;;4.82;3.42;;;24.50;65.10;;;;;;5031333;28;20026;-47
2023/06/22 11:39:14;;;;;;;6.03;3.55;;;24.50;65.10;;;;;;5031229;28;20036;-48
2023/06/22 11:41:41;;;;;;;5.85;3.55;;;24.50;65.30;;;;;;5031524;28;20030;-45
2023/06/22 11:44:07;;;;;;;5.93;3.67;;;24.50;65.10;;;;;;5031311;28;20106;-44
2023/06/22 11:46:33;;;;;;;4.18;3.20;;;24.50;65.20;;;;;;5031374;28;20504;-45
2023/06/22 11:48:59;;;;;;;4.45;3.10;;;24.50;65.20;;;;;;5031119;28;20068;-46
2023/06/22 11:51:24;;;;;;;6.28;3.50;;;24.50;65.20;;;;;;5031420;28;20025;-48
2023/06/22 11:53:50;;;;;;;4.72;3.20;;;24.50;65.20;;;;;;5031057;28;20033;-44
2023/06/22 11:56:16;;;;;;;5.80;3.17;;;24.50;65.10;;;;;;5032677;28;20053;-49
2023/06/22 11:58:42;;;;;;;6.55;3.55;;;24.50;65.10;;;;;;5035115;28;20112;-43
2023/06/22 12:01:08;;;;;;;4.75;3.20;;;24.50;65.30;;;;;;5035394;28;20468;-48
2023/06/22 12:03:33;;;;;;;4.55;3.28;;;24.50;65.30;;;;;;5017747;28;20029;-46
2023/06/22 12:05:59;;;;;;;4.43;3.08;;;24.50;65.30;;;;;;5035181;28;20029;-44
2023/06/22 12:08:25;;;;;;;4.55;3.13;;;24.50;65.30;;;;;;5017363;28;20508;-44
2023/06/22 12:10:51;;;;;;;3.85;3.28;;;24.50;65.30;;;;;;5035281;28;20029;-48
2023/06/22 12:13:17;;;;;;;8.23;3.65;;;24.50;65.10;;;;;;5034988;28;20037;-47
2023/06/22 12:15:43;;;;;;;5.20;3.33;;;24.40;65.30;;;;;;5034920;28;20049;-46
2023/06/22 12:18:09;;;;;;;4.18;3.22;;;24.50;65.20;;;;;;5034926;28;20103;-44
2023/06/22 12:20:35;;;;;;;5.13;3.33;;;24.50;65.30;;;;;;5034894;28;20029;-48
2023/06/22 12:23:01;;;;;;;5.13;3.63;;;24.50;65.10;;;;;;5034953;28;20025;-48
2023/06/22 12:25:27;;;;;;;4.60;2.92;;;24.50;65.10;;;;;;5034839;28;20116;-46
2023/06/22 12:27:53;;;;;;;5.13;3.20;;;24.50;65.10;;;;;;5034725;28;20108;-43
2023/06/22 12:30:19;;;;;;;4.80;3.20;;;24.50;65.10;;;;;;5034799;28;20178;-49
2023/06/22 12:32:45;;;;;;;4.30;3.28;;;24.50;65.20;;;;;;5017032;28;20075;-45
2023/06/22 12:35:13;;;;;;;4.60;3.08;;;24.50;65.20;;;;;;5034596;28;20044;-45
2023/06/22 12:37:43;;;;;;;5.90;3.25;;;24.50;65.20;;;;;;5034419;28;20055;-46
2023/06/22 12:40:09;;;;;;;4.28;3.30;;;24.50;65.30;;;;;;5034492;28;20040;-46
2023/06/22 12:42:35;;;;;;;4.22;3.17;;;24.50;65.30;;;;;;5034614;28;20056;-48